Pagina principale
METAR-TAF:

METAR-TAF

Aeroporti :

Aeroporto di Gyumri

Gyumri, Armenia

latitudine: 40-45-01N, longitudine: 043-51-33E, altezza: 1524 m

Osservazione

Il bollettino è stato emesso 26 minuti fa, alle 21:30 UTC
Vento 4 kt da nord/nord-est
Temperature 3°C
Umidità 70%
Pressione 1023 hPa
Visibilità: 9000 m

METAR: UDSG 292130Z 03004KT 9000 NSC 03/M02 Q1023 R02/CLRD70 NOSIG

Ora: 01:56 (21:56 UTC)

Previsione

Il bollettino è stato emesso 4 ore e 50 minuti fa, alle 17:06 UTC
Previsione valida dal 29 alle 18 UTC al 30 alle 18 UTC
Vento 6 kt da ovest/sud-ovest
Visibilità 10 km o più
Poco nuvoloso ad un'altezza di 5000 ft
Temporaneamente
dal 29 alle 18 UTC al 29 alle 23 UTC
Vento 6 kt da nord/nord-est

TAF: UDSG 291706Z 2918/3018 24006KT 9999 FEW050 TEMPO 2918/2923 03006KT

Osservazioni e previsioni meteorologiche di più di 4000 aeroporti (messaggi METAR e TAF).

Le stazioni disponibili sono rappresentate dai dischi gialli e rossi sulla carta.

Puntare il mouse per vedere il nome della stazione.

Clicca sopra per visualizzare le osservazioni e previsioni meteorologiche.

Per cambiare la mappa : fare clic sui pulsanti verdi con una croce nera per ingrandire, il pulsante verde con un trattino per diminuire, o sulla freccia verde per le mappe adiacenti.


METAR-TAF: